Helm, Illinois
Current Conditions -  °F | °C
As of 1:15 AM on Saturday 29 Nov 2014 (Local Time) from KFOA Reporting Station
Clear Clear  
Wind Chill: 29°   Ceiling: Unl
Heat Index: 36°   Visibility: 10mi
Dew Point: 30°   Wind: 10mph
Humidity: 77%   Direction: 180°S
Pressure: 29.95"   Gusts: NA
Location:  38.6075°N, 88.751°W
Report Text: KFOA 290715Z AUTO 18009KT 10SM CLR 02/M01 A2995 RMK AO2 T00231013
Loading
Personal Weather Stations






























Interactive Weather Map New forecast layout! Learn more

10-Day Weather Forecast

Advertisements
Track Severe Weather on mobile